createdAt,value
2019-04-14T00:00:55.384Z,30.55
2019-04-14T00:03:39.140Z,30.80
2019-04-14T00:06:11.177Z,29.98
2019-04-14T00:08:43.756Z,29.80
2019-04-14T00:11:15.422Z,31.42
2019-04-14T00:13:47.838Z,33.95
2019-04-14T00:16:20.666Z,36.33
2019-04-14T00:18:53.307Z,37.78
2019-04-14T00:21:26.092Z,39.00
2019-04-14T00:23:58.744Z,37.75
2019-04-14T00:26:31.828Z,37.90
2019-04-14T00:29:02.870Z,37.48
2019-04-14T00:31:35.034Z,37.08
2019-04-14T00:34:16.059Z,37.78
2019-04-14T00:37:09.887Z,38.78
2019-04-14T00:39:44.510Z,37.48
2019-04-14T00:42:34.113Z,40.33
2019-04-14T00:45:11.210Z,37.70
2019-04-14T00:48:14.438Z,39.60
2019-04-14T00:50:45.151Z,39.80
2019-04-14T00:53:17.037Z,39.23
2019-04-14T00:55:49.014Z,39.92
2019-04-14T00:58:21.457Z,41.28
2019-04-14T01:00:53.810Z,41.68
2019-04-14T01:03:26.575Z,39.27
2019-04-14T01:05:59.039Z,38.28
2019-04-14T01:08:31.426Z,40.65
2019-04-14T01:11:03.089Z,39.92
2019-04-14T01:13:35.399Z,41.10
2019-04-14T01:16:12.168Z,39.92
2019-04-14T01:18:40.777Z,39.27
2019-04-14T01:21:13.132Z,38.85
2019-04-14T01:23:45.468Z,36.40
2019-04-14T01:26:18.113Z,37.33
2019-04-14T01:28:50.449Z,38.73
2019-04-14T01:31:22.972Z,40.92
2019-04-14T01:33:55.450Z,41.68
2019-04-14T01:36:27.688Z,39.80
2019-04-14T01:39:00.250Z,38.30
2019-04-14T01:41:32.516Z,36.63
2019-04-14T01:44:04.684Z,38.60
2019-04-14T01:46:37.370Z,39.20
2019-04-14T01:49:09.359Z,40.95
2019-04-14T01:51:52.878Z,40.38
2019-04-14T01:54:43.057Z,38.05
2019-04-14T01:57:37.090Z,38.02
2019-04-14T02:00:28.894Z,37.30
2019-04-14T02:03:01.862Z,36.58
2019-04-14T02:05:34.292Z,32.75
2019-04-14T02:08:06.918Z,31.50
2019-04-14T02:10:39.203Z,30.15
2019-04-14T02:13:11.448Z,30.32
2019-04-14T02:15:44.264Z,29.25
2019-04-14T02:18:16.397Z,30.10
2019-04-14T02:20:48.933Z,29.18
2019-04-14T02:23:21.459Z,29.48
2019-04-14T02:25:53.643Z,27.87
2019-04-14T02:28:26.374Z,29.35
2019-04-14T02:31:10.347Z,29.50
2019-04-14T02:34:02.216Z,28.57
2019-04-14T02:36:30.387Z,29.27
2019-04-14T02:39:07.965Z,27.58
2019-04-14T02:44:16.131Z,29.27
2019-04-14T02:46:46.000Z,28.98
2019-04-14T02:49:19.155Z,28.10
2019-04-14T02:51:49.722Z,28.83
2019-04-14T02:54:36.684Z,28.75
2019-04-14T02:59:30.392Z,30.43
2019-04-14T03:02:19.552Z,29.50
2019-04-14T03:04:33.845Z,30.35
2019-04-14T03:12:16.922Z,29.55
2019-04-14T03:14:47.926Z,31.17
2019-04-14T03:17:58.352Z,31.75
2019-04-14T03:20:59.160Z,30.85
2019-04-14T03:23:48.739Z,30.12
2019-04-14T03:26:17.714Z,33.23
2019-04-14T03:28:54.136Z,32.15
2019-04-14T03:31:53.619Z,31.97
2019-04-14T03:34:21.399Z,35.78
2019-04-14T03:39:10.531Z,35.98
2019-04-14T03:44:23.383Z,36.45
2019-04-14T03:46:49.022Z,33.90
2019-04-14T03:49:24.581Z,34.65
2019-04-14T03:52:04.068Z,35.43
2019-04-14T03:54:20.522Z,35.70
2019-04-14T03:56:55.490Z,36.80
2019-04-14T03:59:26.470Z,33.33
2019-04-14T04:01:58.586Z,34.40
2019-04-14T04:04:30.139Z,35.20
2019-04-14T04:07:01.842Z,36.00
2019-04-14T04:09:36.994Z,35.17
2019-04-14T04:12:09.554Z,36.30
2019-04-14T04:14:41.919Z,36.25
2019-04-14T04:17:31.917Z,34.65
2019-04-14T04:20:22.339Z,34.67
2019-04-14T04:23:22.715Z,35.43
2019-04-14T04:26:14.726Z,35.43
2019-04-14T04:28:54.393Z,34.03
2019-04-14T04:31:43.923Z,35.03
2019-04-14T04:34:29.510Z,34.25
2019-04-14T04:37:19.571Z,34.50
2019-04-14T04:39:52.041Z,35.98
2019-04-14T04:42:24.363Z,37.30
2019-04-14T04:44:56.003Z,35.73
2019-04-14T04:47:27.811Z,35.90
2019-04-14T04:50:00.045Z,36.30
2019-04-14T04:52:32.262Z,38.35
2019-04-14T04:55:04.622Z,37.25
2019-04-14T04:57:37.309Z,38.88
2019-04-14T05:00:11.433Z,38.95
2019-04-14T05:02:42.394Z,41.28
2019-04-14T05:06:07.228Z,40.30
2019-04-14T05:08:41.225Z,39.15
2019-04-14T05:11:18.704Z,40.35
2019-04-14T05:13:49.552Z,41.68
2019-04-14T05:16:21.435Z,42.78
2019-04-14T05:18:53.389Z,42.62
2019-04-14T05:21:25.620Z,41.20
2019-04-14T05:23:56.386Z,42.03
2019-04-14T05:26:28.741Z,41.40
2019-04-14T05:29:01.312Z,41.68
2019-04-14T05:31:33.649Z,41.00
2019-04-14T05:34:06.512Z,40.80
2019-04-14T05:36:38.897Z,40.20
2019-04-14T05:39:11.377Z,41.53
2019-04-14T05:41:54.989Z,39.95
2019-04-14T05:44:18.542Z,42.58
2019-04-14T05:46:51.316Z,43.42
2019-04-14T05:49:31.801Z,43.23
2019-04-14T05:51:56.658Z,40.12
2019-04-14T05:54:29.659Z,41.98
2019-04-14T05:57:02.328Z,42.45
2019-04-14T05:59:33.536Z,41.83
2019-04-14T06:02:04.916Z,40.78
2019-04-14T06:04:37.387Z,42.25
2019-04-14T06:07:09.149Z,40.63
2019-04-14T06:09:40.256Z,41.53
2019-04-14T06:12:12.564Z,42.85
2019-04-14T06:14:43.504Z,45.10
2019-04-14T06:17:14.445Z,44.98
2019-04-14T06:19:45.976Z,44.40
2019-04-14T06:22:17.425Z,45.10
2019-04-14T06:24:48.673Z,43.98
2019-04-14T06:27:19.478Z,43.45
2019-04-14T06:29:52.363Z,43.28
2019-04-14T06:32:49.123Z,43.02
2019-04-14T06:35:37.651Z,41.37
2019-04-14T06:38:15.090Z,42.85
2019-04-14T06:40:50.482Z,43.87
2019-04-14T06:43:22.327Z,43.50
2019-04-14T06:45:54.189Z,44.35
2019-04-14T06:48:25.539Z,43.17
2019-04-14T06:50:57.430Z,53.85
2019-04-14T06:53:28.978Z,58.60
2019-04-14T06:56:00.447Z,51.55
2019-04-14T06:58:32.595Z,44.58
2019-04-14T07:01:04.375Z,43.35
2019-04-14T07:03:35.654Z,42.08
2019-04-14T07:06:07.308Z,42.83
2019-04-14T07:08:41.486Z,46.02
2019-04-14T07:11:13.283Z,44.15
2019-04-14T07:13:48.020Z,42.30
2019-04-14T07:16:18.146Z,43.55
2019-04-14T07:18:50.056Z,45.30
2019-04-14T07:21:21.034Z,43.35
2019-04-14T07:23:52.513Z,42.10
2019-04-14T07:26:27.179Z,43.92
2019-04-14T07:28:58.990Z,42.05
2019-04-14T07:31:42.947Z,43.55
2019-04-14T07:34:27.894Z,43.40
2019-04-14T07:37:30.809Z,41.88
2019-04-14T07:40:09.872Z,43.42
2019-04-14T07:42:58.315Z,43.50
2019-04-14T07:45:41.113Z,44.20
2019-04-14T07:48:18.426Z,41.10
2019-04-14T07:51:08.041Z,47.62
2019-04-14T07:53:52.872Z,47.33
2019-04-14T07:56:41.911Z,46.20
2019-04-14T07:59:22.981Z,40.58
2019-04-14T08:02:12.167Z,42.38
2019-04-14T08:04:48.330Z,39.65
2019-04-14T08:07:19.959Z,42.03
2019-04-14T08:09:52.322Z,43.10
2019-04-14T08:12:24.023Z,40.00
2019-04-14T08:14:55.666Z,39.03
2019-04-14T08:17:27.674Z,39.05
2019-04-14T08:19:59.182Z,37.13
2019-04-14T08:22:31.004Z,38.05
2019-04-14T08:25:02.146Z,36.85
2019-04-14T08:27:33.245Z,37.75
2019-04-14T08:30:05.386Z,37.67
2019-04-14T08:32:37.495Z,38.65
2019-04-14T08:35:09.534Z,38.28
2019-04-14T08:37:41.602Z,38.58
2019-04-14T08:40:14.297Z,37.48
2019-04-14T08:42:57.264Z,37.30
2019-04-14T08:45:50.949Z,37.90
2019-04-14T08:48:42.845Z,37.67
2019-04-14T08:51:34.444Z,38.85
2019-04-14T08:54:30.763Z,39.08
2019-04-14T08:57:14.159Z,38.33
2019-04-14T08:59:54.242Z,36.68
2019-04-14T09:02:53.464Z,37.38
2019-04-14T09:05:52.874Z,37.38
2019-04-14T09:08:28.158Z,42.93
2019-04-14T09:11:03.740Z,41.23
2019-04-14T09:13:35.651Z,38.78
2019-04-14T09:16:06.415Z,37.80
2019-04-14T09:18:38.477Z,39.90
2019-04-14T09:21:09.460Z,37.93
2019-04-14T09:23:40.287Z,38.70
2019-04-14T09:26:11.666Z,37.48
2019-04-14T09:28:43.617Z,39.55
2019-04-14T09:31:14.960Z,40.15
2019-04-14T09:33:46.356Z,39.90
2019-04-14T09:36:18.065Z,37.70
2019-04-14T09:38:49.669Z,76.62
2019-04-14T09:41:21.023Z,43.23
2019-04-14T09:43:52.372Z,37.80
2019-04-14T09:46:23.740Z,38.63
2019-04-14T09:48:55.146Z,37.30
2019-04-14T09:51:26.494Z,38.53
2019-04-14T09:53:57.563Z,37.27
2019-04-14T09:56:29.420Z,36.50
2019-04-14T09:59:01.571Z,36.47
2019-04-14T10:01:33.175Z,38.13
2019-04-14T10:04:04.795Z,36.73
2019-04-14T10:06:36.306Z,38.27
2019-04-14T10:09:08.452Z,37.90
2019-04-14T10:11:48.398Z,37.93
2019-04-14T10:14:13.665Z,39.27
2019-04-14T10:16:45.642Z,58.17
2019-04-14T10:19:16.754Z,39.20
2019-04-14T10:21:48.432Z,40.13
2019-04-14T10:24:20.222Z,38.60
2019-04-14T10:26:51.875Z,37.33
2019-04-14T10:29:23.049Z,40.20
2019-04-14T10:31:55.257Z,42.00
2019-04-14T10:34:27.219Z,38.00
2019-04-14T10:36:58.593Z,37.43
2019-04-14T10:39:29.909Z,39.30
2019-04-14T10:42:01.580Z,37.43
2019-04-14T10:44:32.635Z,39.30
2019-04-14T10:47:03.712Z,38.57
2019-04-14T10:49:35.432Z,39.30
2019-04-14T10:52:06.792Z,39.23
2019-04-14T10:54:38.329Z,38.23
2019-04-14T10:57:10.044Z,40.20
2019-04-14T10:59:41.846Z,39.97
2019-04-14T11:02:13.221Z,40.03
2019-04-14T11:04:44.990Z,39.23
2019-04-14T11:07:34.471Z,36.77
2019-04-14T11:10:06.915Z,38.10
2019-04-14T11:12:38.265Z,38.40
2019-04-14T11:15:10.475Z,41.47
2019-04-14T11:17:42.262Z,40.10
2019-04-14T11:20:13.950Z,40.13
2019-04-14T11:22:46.261Z,38.47
2019-04-14T11:25:17.674Z,37.37
2019-04-14T11:27:48.471Z,37.73
2019-04-14T11:30:23.795Z,38.13
2019-04-14T11:33:01.503Z,40.20
2019-04-14T11:35:40.483Z,38.10
2019-04-14T11:38:19.616Z,40.23
2019-04-14T11:40:52.913Z,37.70
2019-04-14T11:43:24.216Z,36.60
2019-04-14T11:45:55.826Z,38.00
2019-04-14T11:48:27.895Z,37.63
2019-04-14T11:50:59.283Z,36.30
2019-04-14T11:53:31.062Z,36.00
2019-04-14T11:56:03.097Z,36.57
2019-04-14T11:58:35.139Z,34.03
2019-04-14T12:01:19.532Z,36.47
2019-04-14T12:04:09.698Z,35.07
2019-04-14T12:07:00.111Z,34.90
2019-04-14T12:09:35.536Z,36.03
2019-04-14T12:12:09.722Z,34.37
2019-04-14T12:14:41.259Z,34.30
2019-04-14T12:17:13.124Z,33.73
2019-04-14T12:19:45.191Z,35.30
2019-04-14T12:22:17.553Z,35.37
2019-04-14T12:24:48.763Z,34.77
2019-04-14T12:27:21.121Z,33.00
2019-04-14T12:29:52.756Z,34.57
2019-04-14T12:32:24.512Z,25.30
2019-04-14T12:34:57.488Z,33.03
2019-04-14T12:37:28.791Z,33.80
2019-04-14T12:40:00.688Z,33.30
2019-04-14T12:42:53.670Z,33.93
2019-04-14T12:45:38.194Z,33.83
2019-04-14T12:48:44.182Z,32.63
2019-04-14T12:51:20.965Z,31.53
2019-04-14T12:53:52.570Z,33.33
2019-04-14T12:56:26.377Z,31.63
2019-04-14T12:59:16.784Z,32.00
2019-04-14T13:02:16.855Z,29.80
2019-04-14T13:04:48.334Z,29.80
2019-04-14T13:07:19.110Z,29.30
2019-04-14T13:09:51.275Z,29.63
2019-04-14T13:12:22.954Z,29.13
2019-04-14T13:14:54.322Z,28.57
2019-04-14T13:17:26.057Z,27.20
2019-04-14T13:19:56.843Z,27.47
2019-04-14T13:22:33.924Z,26.60
2019-04-14T13:25:00.964Z,27.77
2019-04-14T13:27:32.649Z,27.37
2019-04-14T13:30:04.450Z,26.33
2019-04-14T13:32:36.552Z,26.43
2019-04-14T13:35:08.280Z,26.30
2019-04-14T13:37:40.345Z,25.83
2019-04-14T13:40:11.312Z,23.80
2019-04-14T13:42:43.041Z,23.17
2019-04-14T13:45:14.385Z,26.63
2019-04-14T13:47:45.549Z,23.33
2019-04-14T13:50:17.329Z,23.77
2019-04-14T13:52:48.897Z,24.90
2019-04-14T13:55:20.020Z,24.23
2019-04-14T13:57:51.795Z,24.03
2019-04-14T14:00:23.758Z,27.40
2019-04-14T14:02:55.806Z,28.60
2019-04-14T14:05:26.810Z,23.23
2019-04-14T14:07:57.568Z,22.43
2019-04-14T14:10:30.301Z,22.70
2019-04-14T14:13:21.575Z,22.67
2019-04-14T14:16:10.891Z,22.00
2019-04-14T14:18:59.227Z,21.73
2019-04-14T14:21:46.163Z,19.83
2019-04-14T14:24:27.944Z,20.77
2019-04-14T14:26:59.209Z,21.70
2019-04-14T14:29:30.595Z,20.13
2019-04-14T14:32:05.398Z,20.33
2019-04-14T14:34:36.148Z,20.17
2019-04-14T14:37:08.207Z,20.13
2019-04-14T14:39:39.876Z,19.23
2019-04-14T14:42:11.440Z,19.70
2019-04-14T14:44:58.771Z,19.70
2019-04-14T14:47:31.828Z,19.47
2019-04-14T14:50:21.399Z,19.00
2019-04-14T14:52:52.846Z,18.70
2019-04-14T14:55:24.501Z,19.00
2019-04-14T14:57:55.834Z,20.70
2019-04-14T15:00:36.603Z,24.13
2019-04-14T15:03:08.130Z,20.80
2019-04-14T15:05:40.350Z,19.77
2019-04-14T15:08:14.090Z,20.63
2019-04-14T15:10:46.367Z,19.50
2019-04-14T15:13:17.194Z,24.03
2019-04-14T15:15:48.646Z,24.50
2019-04-14T15:18:20.547Z,20.57
2019-04-14T15:20:52.338Z,19.47
2019-04-14T15:23:25.206Z,20.30
2019-04-14T15:25:57.024Z,19.73
2019-04-14T15:28:29.268Z,19.00
2019-04-14T15:31:00.067Z,19.47
2019-04-14T15:33:34.386Z,18.70
2019-04-14T15:36:06.165Z,20.67
2019-04-14T15:38:38.294Z,20.17
2019-04-14T15:41:10.386Z,20.10
2019-04-14T15:43:42.111Z,19.67
2019-04-14T15:46:14.430Z,19.33
2019-04-14T15:48:47.856Z,23.00
2019-04-14T15:51:18.870Z,21.40
2019-04-14T15:53:51.171Z,20.00
2019-04-14T15:56:56.810Z,19.10
2019-04-14T15:59:59.272Z,19.00
2019-04-14T16:02:55.697Z,20.10
2019-04-14T16:05:32.031Z,19.07
2019-04-14T16:08:08.243Z,19.57
2019-04-14T16:10:44.754Z,19.93
2019-04-14T16:13:25.921Z,19.13
2019-04-14T16:16:17.888Z,19.33
2019-04-14T16:19:03.110Z,19.60
2019-04-14T16:21:35.187Z,19.80
2019-04-14T16:24:06.902Z,20.30
2019-04-14T16:26:47.557Z,18.50
2019-04-14T16:29:33.011Z,18.70
2019-04-14T16:32:09.981Z,18.77
2019-04-14T16:34:51.339Z,19.20
2019-04-14T16:37:23.268Z,19.60
2019-04-14T16:39:54.682Z,21.90
2019-04-14T16:42:26.246Z,20.93
2019-04-14T16:44:58.375Z,19.63
2019-04-14T16:47:30.337Z,19.37
2019-04-14T16:50:02.222Z,19.30
2019-04-14T16:52:43.355Z,18.07
2019-04-14T16:55:24.476Z,18.97
2019-04-14T16:58:20.374Z,19.97
2019-04-14T17:00:56.223Z,19.60
2019-04-14T17:03:27.873Z,19.90
2019-04-14T17:06:00.820Z,18.40
2019-04-14T17:08:33.096Z,17.43
2019-04-14T17:11:05.661Z,19.20
2019-04-14T17:13:40.581Z,18.33
2019-04-14T17:16:48.955Z,17.73
2019-04-14T17:19:39.916Z,17.90
2019-04-14T17:22:21.808Z,17.10
2019-04-14T17:25:04.530Z,16.40
2019-04-14T17:28:00.496Z,17.50
2019-04-14T17:30:37.468Z,17.87
2019-04-14T17:33:19.264Z,17.10
2019-04-14T17:36:12.039Z,17.23
2019-04-14T17:39:15.844Z,16.87
2019-04-14T17:41:58.397Z,17.87
2019-04-14T17:44:54.796Z,25.17
2019-04-14T17:48:02.316Z,27.43
2019-04-14T17:50:51.147Z,33.63
2019-04-14T17:53:40.593Z,19.13
2019-04-14T17:56:39.884Z,33.43
2019-04-14T17:59:36.089Z,21.47
2019-04-14T18:02:35.837Z,19.13
2019-04-14T18:05:14.637Z,19.57
2019-04-14T18:07:56.221Z,19.57
2019-04-14T18:10:42.782Z,18.50
2019-04-14T18:13:25.839Z,19.70
2019-04-14T18:16:22.053Z,22.70
2019-04-14T18:19:08.606Z,20.63
2019-04-14T18:21:40.119Z,19.33
2019-04-14T18:24:11.693Z,21.33
2019-04-14T18:26:44.719Z,19.93
2019-04-14T18:29:28.939Z,20.20
2019-04-14T18:32:18.395Z,18.97
2019-04-14T18:35:20.900Z,18.73
2019-04-14T18:38:00.434Z,19.87
2019-04-14T18:40:50.813Z,20.63
2019-04-14T18:43:41.658Z,19.10
2019-04-14T18:46:19.229Z,15.23
2019-04-14T18:49:03.329Z,14.50
2019-04-14T18:51:40.981Z,14.67
2019-04-14T18:54:25.240Z,15.63
2019-04-14T18:57:07.700Z,13.27
2019-04-14T18:59:58.156Z,14.60
2019-04-14T19:02:30.920Z,15.13
2019-04-14T19:05:02.605Z,15.83
2019-04-14T19:07:35.346Z,15.30
2019-04-14T19:10:09.474Z,14.17
2019-04-14T19:12:50.956Z,14.80
2019-04-14T19:15:46.105Z,14.00
2019-04-14T19:18:27.584Z,14.10
2019-04-14T19:21:05.168Z,14.40
2019-04-14T19:23:37.184Z,15.00
2019-04-14T19:26:09.578Z,14.53
2019-04-14T19:28:41.183Z,15.67
2019-04-14T19:31:13.535Z,15.40
2019-04-14T19:37:13.809Z,14.27
2019-04-14T19:39:45.582Z,13.53
2019-04-14T19:42:17.490Z,15.37
2019-04-14T19:44:49.641Z,14.33
2019-04-14T19:47:20.910Z,16.47
2019-04-14T19:49:52.777Z,14.50
2019-04-14T19:52:25.303Z,15.17
2019-04-14T19:54:58.013Z,14.83
2019-04-14T19:57:30.267Z,14.90
2019-04-14T20:00:02.246Z,16.07
2019-04-14T20:02:33.292Z,15.17
2019-04-14T20:05:05.443Z,15.37
2019-04-14T20:07:37.911Z,16.37
2019-04-14T20:10:12.218Z,16.03
2019-04-14T20:12:44.007Z,16.90
2019-04-14T20:15:19.958Z,15.87
2019-04-14T20:18:09.975Z,16.40
2019-04-14T20:20:52.883Z,17.20
2019-04-14T20:23:30.188Z,14.97
2019-04-14T20:26:28.504Z,16.03
2019-04-14T20:29:06.745Z,15.53
2019-04-14T20:31:51.631Z,15.43
2019-04-14T20:34:24.606Z,15.65
2019-04-14T20:36:57.530Z,14.93
2019-04-14T20:39:31.332Z,15.67
2019-04-14T20:42:03.007Z,15.87
2019-04-14T20:44:34.906Z,14.33
2019-04-14T20:47:10.361Z,15.05
2019-04-14T20:49:43.889Z,15.93
2019-04-14T20:52:16.116Z,16.15
2019-04-14T20:55:03.954Z,15.53
2019-04-14T20:57:37.802Z,14.95
2019-04-14T21:00:10.139Z,15.45
2019-04-14T21:03:03.540Z,16.10
2019-04-14T21:06:09.711Z,16.97
2019-04-14T21:09:09.826Z,17.20
2019-04-14T21:12:12.254Z,14.80
2019-04-14T21:14:58.888Z,14.50
2019-04-14T21:17:41.617Z,14.70
2019-04-14T21:20:18.723Z,20.55
2019-04-14T21:23:12.815Z,18.60
2019-04-14T21:26:00.899Z,16.10
2019-04-14T21:28:45.628Z,14.95
2019-04-14T21:31:30.925Z,14.63
2019-04-14T21:34:10.315Z,15.20
2019-04-14T21:36:56.167Z,14.60
2019-04-14T21:39:49.570Z,15.00
2019-04-14T21:42:23.780Z,15.47
2019-04-14T21:44:55.705Z,17.10
2019-04-14T21:47:27.191Z,16.07
2019-04-14T21:49:59.962Z,16.67
2019-04-14T21:52:40.096Z,15.40
2019-04-14T21:55:14.550Z,15.13
2019-04-14T21:57:52.428Z,14.37
2019-04-14T22:01:23.451Z,16.53
2019-04-14T22:04:04.245Z,14.65
2019-04-14T22:06:41.184Z,15.45
2019-04-14T22:09:22.481Z,15.05
2019-04-14T22:11:54.551Z,15.55
2019-04-14T22:14:26.630Z,15.20
2019-04-14T22:16:59.679Z,15.32
2019-04-14T22:19:31.057Z,15.35
2019-04-14T22:22:02.498Z,14.20
2019-04-14T22:24:35.445Z,15.98
2019-04-14T22:27:07.685Z,14.18
2019-04-14T22:29:39.631Z,14.55
2019-04-14T22:32:11.592Z,15.25
2019-04-14T22:34:43.497Z,14.43
2019-04-14T22:37:15.597Z,13.62
2019-04-14T22:39:46.556Z,14.87
2019-04-14T22:42:18.057Z,13.60
2019-04-14T22:44:50.208Z,14.85
2019-04-14T22:47:22.590Z,13.62
2019-04-14T22:49:53.860Z,14.70
2019-04-14T22:52:25.284Z,14.63
2019-04-14T22:54:56.617Z,14.13
2019-04-14T22:57:27.887Z,13.68
2019-04-14T23:00:00.036Z,13.38
2019-04-14T23:02:53.012Z,13.10
2019-04-14T23:05:42.879Z,14.00
2019-04-14T23:08:39.578Z,13.28
2019-04-14T23:11:29.304Z,14.00
2019-04-14T23:14:31.412Z,13.38
2019-04-14T23:17:19.996Z,13.85
2019-04-14T23:19:56.424Z,13.53
2019-04-14T23:22:37.350Z,14.33
2019-04-14T23:25:08.672Z,14.60
2019-04-14T23:27:40.199Z,14.65
2019-04-14T23:30:12.382Z,13.45
2019-04-14T23:32:43.101Z,13.75
2019-04-14T23:35:14.257Z,14.30
2019-04-14T23:37:45.846Z,15.10
2019-04-14T23:40:17.008Z,15.03
2019-04-14T23:42:48.552Z,14.47
2019-04-14T23:45:19.596Z,14.70
2019-04-14T23:47:50.788Z,14.75
2019-04-14T23:50:22.602Z,15.23
2019-04-14T23:52:54.259Z,14.38
2019-04-14T23:55:24.781Z,14.90
2019-04-14T23:57:56.297Z,14.43
